createdAt,value
2019-04-27T00:01:33.619Z,17.08
2019-04-27T00:04:21.027Z,17.15
2019-04-27T00:06:51.352Z,17.02
2019-04-27T00:09:43.226Z,17.02
2019-04-27T00:12:10.463Z,17.08
2019-04-27T00:14:40.115Z,17.05
2019-04-27T00:17:43.551Z,17.02
2019-04-27T00:20:24.723Z,17.00
2019-04-27T00:23:19.882Z,16.76
2019-04-27T00:25:49.738Z,16.56
2019-04-27T00:28:19.269Z,16.49
2019-04-27T00:30:48.852Z,16.36
2019-04-27T00:33:18.633Z,16.34
2019-04-27T00:35:54.002Z,16.35
2019-04-27T00:38:29.113Z,16.34
2019-04-27T00:41:03.252Z,16.35
2019-04-27T00:43:32.887Z,16.41
2019-04-27T00:46:04.034Z,16.49
2019-04-27T00:48:37.576Z,16.53
2019-04-27T00:51:07.317Z,16.53
2019-04-27T00:53:39.328Z,16.53
2019-04-27T00:56:26.506Z,16.51
2019-04-27T00:59:13.787Z,16.54
2019-04-27T01:01:50.700Z,16.51
2019-04-27T01:04:25.299Z,16.51
2019-04-27T01:06:57.040Z,16.53
2019-04-27T01:09:27.115Z,16.54
2019-04-27T01:11:56.921Z,16.54
2019-04-27T01:14:26.807Z,16.55
2019-04-27T01:16:56.405Z,15.91
2019-04-27T01:19:26.066Z,16.59
2019-04-27T01:21:55.847Z,16.61
2019-04-27T01:24:25.964Z,16.43
2019-04-27T01:27:13.048Z,16.24
2019-04-27T01:29:42.923Z,16.21
2019-04-27T01:32:14.388Z,16.29
2019-04-27T01:34:44.190Z,16.38
2019-04-27T01:37:13.651Z,16.45
2019-04-27T01:39:43.189Z,16.45
2019-04-27T01:42:13.041Z,16.42
2019-04-27T01:44:42.856Z,16.41
2019-04-27T01:47:12.436Z,16.40
2019-04-27T01:49:41.930Z,16.40
2019-04-27T01:52:12.019Z,16.35
2019-04-27T01:54:41.668Z,16.30
2019-04-27T01:57:11.623Z,16.26
2019-04-27T01:59:41.313Z,16.22
2019-04-27T02:02:26.136Z,16.21
2019-04-27T02:05:13.220Z,16.16
2019-04-27T02:07:43.973Z,16.16
2019-04-27T02:10:14.198Z,16.15
2019-04-27T02:12:44.286Z,16.10
2019-04-27T02:15:14.162Z,15.99
2019-04-27T02:17:43.787Z,15.96
2019-04-27T02:20:13.669Z,15.94
2019-04-27T02:22:43.686Z,15.91
2019-04-27T02:25:13.559Z,15.91
2019-04-27T02:27:49.091Z,15.89
2019-04-27T02:30:42.089Z,15.89
2019-04-27T02:33:34.272Z,15.87
2019-04-27T02:36:03.869Z,15.81
2019-04-27T02:38:33.457Z,15.81
2019-04-27T02:41:04.759Z,15.80
2019-04-27T02:43:42.974Z,15.76
2019-04-27T02:46:12.649Z,15.76
2019-04-27T02:48:55.993Z,15.74
2019-04-27T02:51:16.416Z,15.78
2019-04-27T02:54:00.140Z,15.75
2019-04-27T02:56:30.774Z,15.76
2019-04-27T02:59:00.570Z,15.75
2019-04-27T03:01:32.962Z,15.71
2019-04-27T03:04:02.712Z,15.80
2019-04-27T03:06:32.333Z,15.80
2019-04-27T03:09:02.034Z,15.78
2019-04-27T03:11:32.166Z,15.74
2019-04-27T03:14:32.573Z,15.77
2019-04-27T03:17:16.580Z,15.47
2019-04-27T03:19:54.117Z,15.74
2019-04-27T03:22:44.915Z,15.80
2019-04-27T03:25:34.899Z,15.80
2019-04-27T03:28:15.086Z,15.86
2019-04-27T03:30:44.917Z,15.82
2019-04-27T03:33:14.443Z,15.82
2019-04-27T03:35:44.313Z,15.80
2019-04-27T03:38:14.025Z,15.80
2019-04-27T03:40:44.018Z,15.75
2019-04-27T03:43:22.987Z,15.76
2019-04-27T03:45:52.808Z,15.80
2019-04-27T03:48:22.525Z,15.83
2019-04-27T03:51:10.149Z,15.81
2019-04-27T03:53:51.048Z,15.87
2019-04-27T03:56:25.735Z,15.87
2019-04-27T03:58:59.890Z,15.88
2019-04-27T04:01:30.279Z,15.88
2019-04-27T04:04:00.144Z,15.84
2019-04-27T04:06:29.831Z,15.82
2019-04-27T04:09:00.381Z,15.87
2019-04-27T04:11:39.722Z,15.90
2019-04-27T04:14:13.571Z,15.93
2019-04-27T04:17:01.784Z,15.99
2019-04-27T04:19:31.613Z,15.86
2019-04-27T04:22:00.585Z,15.82
2019-04-27T04:24:31.803Z,15.82
2019-04-27T04:27:01.730Z,15.84
2019-04-27T04:29:31.222Z,15.88
2019-04-27T04:32:00.798Z,15.92
2019-04-27T04:34:30.720Z,15.97
2019-04-27T04:37:00.798Z,16.03
2019-04-27T04:39:30.792Z,16.01
2019-04-27T04:42:19.859Z,16.03
2019-04-27T04:45:17.072Z,16.05
2019-04-27T04:48:01.532Z,16.06
2019-04-27T04:50:31.201Z,15.96
2019-04-27T04:53:00.813Z,16.08
2019-04-27T04:55:30.882Z,16.13
2019-04-27T04:58:00.578Z,16.03
2019-04-27T05:00:30.875Z,16.00
2019-04-27T05:03:00.890Z,16.06
2019-04-27T05:05:30.636Z,16.00
2019-04-27T05:08:00.890Z,15.38
2019-04-27T05:10:31.284Z,16.07
2019-04-27T05:13:00.931Z,15.37
2019-04-27T05:15:30.823Z,16.00
2019-04-27T05:18:00.502Z,15.95
2019-04-27T05:20:45.367Z,16.00
2019-04-27T05:23:14.963Z,16.00
2019-04-27T05:25:44.494Z,16.06
2019-04-27T05:28:14.230Z,16.00
2019-04-27T05:30:43.904Z,16.09
2019-04-27T05:33:13.649Z,16.19
2019-04-27T05:35:43.405Z,16.21
2019-04-27T05:38:13.618Z,16.19
2019-04-27T05:40:43.521Z,16.16
2019-04-27T05:43:14.857Z,16.18
2019-04-27T05:46:51.306Z,16.20
2019-04-27T05:49:44.441Z,16.16
2019-04-27T05:52:29.487Z,16.09
2019-04-27T05:55:00.221Z,16.13
2019-04-27T05:57:31.347Z,16.11
2019-04-27T06:00:02.490Z,16.08
2019-04-27T06:02:32.705Z,16.02
2019-04-27T06:05:02.249Z,16.06
2019-04-27T06:07:32.167Z,16.07
2019-04-27T06:10:01.864Z,16.03
2019-04-27T06:12:31.971Z,16.01
2019-04-27T06:15:01.953Z,16.06
2019-04-27T06:17:31.880Z,16.10
2019-04-27T06:20:02.018Z,16.15
2019-04-27T06:22:31.584Z,16.16
2019-04-27T06:25:01.326Z,16.19
2019-04-27T06:27:31.164Z,16.16
2019-04-27T06:30:04.716Z,16.21
2019-04-27T06:32:32.678Z,16.22
2019-04-27T06:35:02.234Z,16.27
2019-04-27T06:37:31.857Z,16.21
2019-04-27T06:40:01.734Z,16.18
2019-04-27T06:42:31.750Z,16.16
2019-04-27T06:45:01.299Z,16.24
2019-04-27T06:47:31.075Z,16.29
2019-04-27T06:50:00.661Z,16.30
2019-04-27T06:52:30.733Z,16.37
2019-04-27T06:55:00.691Z,16.42
2019-04-27T06:57:30.915Z,16.53
2019-04-27T07:00:00.552Z,16.52
2019-04-27T07:02:30.573Z,16.66
2019-04-27T07:05:00.713Z,16.70
2019-04-27T07:07:30.756Z,16.83
2019-04-27T07:10:00.552Z,16.97
2019-04-27T07:12:30.462Z,17.03
2019-04-27T07:15:00.740Z,17.02
2019-04-27T07:17:31.318Z,17.09
2019-04-27T07:20:01.249Z,17.14
2019-04-27T07:22:30.843Z,17.07
2019-04-27T07:25:00.568Z,17.06
2019-04-27T07:27:30.562Z,17.06
2019-04-27T07:30:01.717Z,17.05
2019-04-27T07:32:31.829Z,17.00
2019-04-27T07:35:01.438Z,16.94
2019-04-27T07:37:31.201Z,16.97
2019-04-27T07:40:00.905Z,16.93
2019-04-27T07:42:32.255Z,16.78
2019-04-27T07:45:11.379Z,16.50
2019-04-27T07:47:44.576Z,16.94
2019-04-27T07:50:14.573Z,17.03
2019-04-27T07:52:44.707Z,17.02
2019-04-27T07:55:14.252Z,16.92
2019-04-27T07:57:43.873Z,16.90
2019-04-27T08:00:14.789Z,16.98
2019-04-27T08:02:44.730Z,17.07
2019-04-27T08:05:14.822Z,17.09
2019-04-27T08:07:44.430Z,17.16
2019-04-27T08:10:14.740Z,17.22
2019-04-27T08:12:47.615Z,17.26
2019-04-27T08:15:18.905Z,17.29
2019-04-27T08:17:49.219Z,17.28
2019-04-27T08:20:21.116Z,17.17
2019-04-27T08:22:50.646Z,17.07
2019-04-27T08:25:22.378Z,17.09
2019-04-27T08:28:00.286Z,17.19
2019-04-27T08:30:51.742Z,17.28
2019-04-27T08:33:21.485Z,17.32
2019-04-27T08:35:51.045Z,17.40
2019-04-27T08:38:20.812Z,17.51
2019-04-27T08:40:50.362Z,17.60
2019-04-27T08:43:20.023Z,17.54
2019-04-27T08:45:50.162Z,17.62
2019-04-27T08:48:33.342Z,17.69
2019-04-27T08:50:51.367Z,17.76
2019-04-27T08:53:21.072Z,17.56
2019-04-27T08:55:52.755Z,17.32
2019-04-27T08:58:22.363Z,17.15
2019-04-27T09:00:52.228Z,16.86
2019-04-27T09:03:22.141Z,16.57
2019-04-27T09:05:52.169Z,16.54
2019-04-27T09:08:44.053Z,16.32
2019-04-27T09:11:24.428Z,16.25
2019-04-27T09:14:09.985Z,16.03
2019-04-27T09:16:59.556Z,15.74
2019-04-27T09:19:29.133Z,15.54
2019-04-27T09:22:13.443Z,15.37
2019-04-27T09:24:36.655Z,15.29
2019-04-27T09:27:09.585Z,15.32
2019-04-27T09:29:39.711Z,15.35
2019-04-27T09:32:09.533Z,15.44
2019-04-27T09:34:39.407Z,15.46
2019-04-27T09:37:09.197Z,15.50
2019-04-27T09:39:39.318Z,15.48
2019-04-27T09:42:09.334Z,15.19
2019-04-27T09:44:39.193Z,15.06
2019-04-27T09:47:09.598Z,14.90
2019-04-27T09:49:39.163Z,14.76
2019-04-27T09:52:08.880Z,14.64
2019-04-27T09:54:38.689Z,14.71
2019-04-27T09:57:08.657Z,14.82
2019-04-27T09:59:39.766Z,14.88
2019-04-27T10:02:10.122Z,14.91
2019-04-27T10:04:39.706Z,14.89
2019-04-27T10:07:10.673Z,14.85
2019-04-27T10:09:40.438Z,14.69
2019-04-27T10:12:10.273Z,14.67
2019-04-27T10:14:40.246Z,14.65
2019-04-27T10:17:09.987Z,14.69
2019-04-27T10:19:39.734Z,14.71
2019-04-27T10:22:09.618Z,14.71
2019-04-27T10:24:39.363Z,14.60
2019-04-27T10:27:09.606Z,14.52
2019-04-27T10:29:39.328Z,14.11
2019-04-27T10:32:10.003Z,13.95
2019-04-27T10:34:41.647Z,14.00
2019-04-27T10:37:11.553Z,14.04
2019-04-27T10:39:41.102Z,13.95
2019-04-27T10:42:11.060Z,13.88
2019-04-27T10:44:40.751Z,13.88
2019-04-27T10:47:11.093Z,13.90
2019-04-27T10:49:40.813Z,13.85
2019-04-27T10:52:11.831Z,13.41
2019-04-27T10:54:41.440Z,13.49
2019-04-27T10:57:11.336Z,13.67
2019-04-27T10:59:40.950Z,13.70
2019-04-27T11:02:11.065Z,13.62
2019-04-27T11:04:56.626Z,13.44
2019-04-27T11:07:30.317Z,13.27
2019-04-27T11:10:03.040Z,13.21
2019-04-27T11:12:33.295Z,13.16
2019-04-27T11:15:03.558Z,13.13
2019-04-27T11:17:37.053Z,13.13
2019-04-27T11:20:07.478Z,13.05
2019-04-27T11:22:37.313Z,12.72
2019-04-27T11:25:08.338Z,12.71
2019-04-27T11:27:38.977Z,12.68
2019-04-27T11:30:09.460Z,12.87
2019-04-27T11:32:43.721Z,12.86
2019-04-27T11:35:39.343Z,12.85
2019-04-27T11:38:08.458Z,12.82
2019-04-27T11:40:38.441Z,12.84
2019-04-27T11:43:10.345Z,12.86
2019-04-27T11:45:40.095Z,12.91
2019-04-27T11:48:10.136Z,12.46
2019-04-27T11:50:39.989Z,12.40
2019-04-27T11:53:19.815Z,12.29
2019-04-27T11:55:41.486Z,12.39
2019-04-27T11:58:11.548Z,12.49
2019-04-27T12:00:41.377Z,12.47
2019-04-27T12:03:11.916Z,12.58
2019-04-27T12:05:41.639Z,12.39
2019-04-27T12:08:11.590Z,12.42
2019-04-27T12:10:41.578Z,12.51
2019-04-27T12:13:11.463Z,12.42
2019-04-27T12:15:41.296Z,12.36
2019-04-27T12:18:11.373Z,12.42
2019-04-27T12:20:41.265Z,12.42
2019-04-27T12:23:11.005Z,12.53
2019-04-27T12:25:41.361Z,12.58
2019-04-27T12:28:20.553Z,12.49
2019-04-27T12:31:00.350Z,12.28
2019-04-27T12:33:31.530Z,12.22
2019-04-27T12:36:01.170Z,12.23
2019-04-27T12:38:30.800Z,12.21
2019-04-27T12:41:00.595Z,12.28
2019-04-27T12:43:30.350Z,12.25
2019-04-27T12:45:59.920Z,12.11
2019-04-27T12:48:30.869Z,12.00
2019-04-27T12:51:00.801Z,12.00
2019-04-27T12:53:48.616Z,11.95
2019-04-27T12:56:29.956Z,11.97
2019-04-27T12:59:05.388Z,12.09
2019-04-27T13:01:36.104Z,12.05
2019-04-27T13:04:06.210Z,11.72
2019-04-27T13:06:35.903Z,11.92
2019-04-27T13:09:07.735Z,11.74
2019-04-27T13:11:37.359Z,11.73
2019-04-27T13:14:07.311Z,11.73
2019-04-27T13:16:37.798Z,11.78
2019-04-27T13:19:08.929Z,11.71
2019-04-27T13:21:39.529Z,11.63
2019-04-27T13:24:09.770Z,11.60
2019-04-27T13:26:39.657Z,11.51
2019-04-27T13:29:09.322Z,11.61
2019-04-27T13:31:39.332Z,11.69
2019-04-27T13:34:09.379Z,11.62
2019-04-27T13:36:39.705Z,11.64
2019-04-27T13:39:09.683Z,11.85
2019-04-27T13:41:39.396Z,11.85
2019-04-27T13:44:09.001Z,11.83
2019-04-27T13:46:56.347Z,11.83
2019-04-27T13:49:51.136Z,11.67
2019-04-27T13:52:23.284Z,11.74
2019-04-27T13:54:52.959Z,11.75
2019-04-27T13:57:22.804Z,11.64
2019-04-27T13:59:52.563Z,11.72
2019-04-27T14:02:24.198Z,11.69
2019-04-27T14:04:54.510Z,11.75
2019-04-27T14:07:26.618Z,11.59
2019-04-27T14:09:56.327Z,11.58
2019-04-27T14:12:25.880Z,11.62
2019-04-27T14:14:55.637Z,11.65
2019-04-27T14:17:25.281Z,11.69
2019-04-27T14:19:55.608Z,11.62
2019-04-27T14:22:25.455Z,11.53
2019-04-27T14:24:55.110Z,11.51
2019-04-27T14:27:31.064Z,11.63
2019-04-27T14:30:00.829Z,11.67
2019-04-27T14:32:30.444Z,11.71
2019-04-27T14:35:00.298Z,11.59
2019-04-27T14:37:30.383Z,11.67
2019-04-27T14:40:00.220Z,11.53
2019-04-27T14:42:29.787Z,11.59
2019-04-27T14:44:59.491Z,11.55
2019-04-27T14:47:29.572Z,11.69
2019-04-27T14:49:59.463Z,11.74
2019-04-27T14:52:29.306Z,11.55
2019-04-27T14:54:59.209Z,11.65
2019-04-27T14:57:29.236Z,11.67
2019-04-27T15:00:00.202Z,11.72
2019-04-27T15:02:30.780Z,11.75
2019-04-27T15:05:00.466Z,11.75
2019-04-27T15:07:30.529Z,11.75
2019-04-27T15:10:00.400Z,11.74
2019-04-27T15:12:32.354Z,11.63
2019-04-27T15:15:01.813Z,11.72
2019-04-27T15:17:31.630Z,11.66
2019-04-27T15:20:06.601Z,11.58
2019-04-27T15:22:36.263Z,11.59
2019-04-27T15:25:12.331Z,11.53
2019-04-27T15:27:43.097Z,11.52
2019-04-27T15:30:18.872Z,11.61
2019-04-27T15:33:22.889Z,11.55
2019-04-27T15:36:00.094Z,11.60
2019-04-27T15:38:33.571Z,11.69
2019-04-27T15:41:13.803Z,11.74
2019-04-27T15:43:44.163Z,11.60
2019-04-27T15:46:14.200Z,11.61
2019-04-27T15:48:48.368Z,11.57
2019-04-27T15:51:20.991Z,11.66
2019-04-27T15:53:52.857Z,11.64
2019-04-27T15:56:22.120Z,11.67
2019-04-27T15:58:51.785Z,11.79
2019-04-27T16:01:22.635Z,11.82
2019-04-27T16:03:52.488Z,11.73
2019-04-27T16:06:22.339Z,11.71
2019-04-27T16:08:52.691Z,11.74
2019-04-27T16:11:22.505Z,11.63
2019-04-27T16:13:52.917Z,11.68
2019-04-27T16:16:24.602Z,11.69
2019-04-27T16:18:57.871Z,11.68
2019-04-27T16:21:31.554Z,11.64
2019-04-27T16:24:03.799Z,11.60
2019-04-27T16:26:36.127Z,11.72
2019-04-27T16:29:06.101Z,11.79
2019-04-27T16:31:36.704Z,11.64
2019-04-27T16:34:08.312Z,11.61
2019-04-27T16:36:43.588Z,11.49
2019-04-27T16:39:11.102Z,11.48
2019-04-27T16:41:44.506Z,11.54
2019-04-27T16:44:15.522Z,11.63
2019-04-27T16:46:45.755Z,11.64
2019-04-27T16:49:15.663Z,11.63
2019-04-27T16:51:49.246Z,11.58
2019-04-27T16:54:21.357Z,11.49
2019-04-27T16:56:58.283Z,11.49
2019-04-27T16:59:42.641Z,11.49
2019-04-27T17:01:55.310Z,11.46
2019-04-27T17:04:25.026Z,11.46
2019-04-27T17:06:55.013Z,11.50
2019-04-27T17:09:24.894Z,11.59
2019-04-27T17:11:54.895Z,11.57
2019-04-27T17:14:35.232Z,11.61
2019-04-27T17:17:20.905Z,11.55
2019-04-27T17:19:53.642Z,11.50
2019-04-27T17:22:24.067Z,11.43
2019-04-27T17:24:53.858Z,11.39
2019-04-27T17:27:31.948Z,11.55
2019-04-27T17:30:02.225Z,11.52
2019-04-27T17:32:41.746Z,11.46
2019-04-27T17:35:14.769Z,11.41
2019-04-27T17:37:42.956Z,11.45
2019-04-27T17:40:15.513Z,10.78
2019-04-27T17:42:45.330Z,11.32
2019-04-27T17:45:15.595Z,11.35
2019-04-27T17:47:45.546Z,11.40
2019-04-27T17:50:19.983Z,11.43
2019-04-27T17:52:55.015Z,11.48
2019-04-27T17:55:24.302Z,11.51
2019-04-27T17:58:00.545Z,11.46
2019-04-27T18:00:32.975Z,11.46
2019-04-27T18:03:00.655Z,11.49
2019-04-27T18:05:30.633Z,11.38
2019-04-27T18:08:00.931Z,11.40
2019-04-27T18:10:32.020Z,11.40
2019-04-27T18:13:02.031Z,11.43
2019-04-27T18:15:32.742Z,11.47
2019-04-27T18:18:11.616Z,11.44
2019-04-27T18:20:44.032Z,11.52
2019-04-27T18:23:18.556Z,11.57
2019-04-27T18:25:54.076Z,11.68
2019-04-27T18:28:28.287Z,11.73
2019-04-27T18:31:16.456Z,11.62
2019-04-27T18:33:48.121Z,11.56
2019-04-27T18:36:19.414Z,11.62
2019-04-27T18:38:50.166Z,11.68
2019-04-27T18:41:22.441Z,11.61
2019-04-27T18:43:55.203Z,11.58
2019-04-27T18:46:28.193Z,11.59
2019-04-27T18:49:18.169Z,11.59
2019-04-27T18:52:06.535Z,11.56
2019-04-27T18:54:41.871Z,11.55
2019-04-27T18:57:10.796Z,11.63
2019-04-27T18:59:43.157Z,11.55
2019-04-27T19:02:12.892Z,11.53
2019-04-27T19:04:42.828Z,11.58
2019-04-27T19:07:12.951Z,11.71
2019-04-27T19:09:43.393Z,11.73
2019-04-27T19:12:14.237Z,11.69
2019-04-27T19:14:47.768Z,11.69
2019-04-27T19:17:19.841Z,11.73
2019-04-27T19:19:51.138Z,11.69
2019-04-27T19:22:21.456Z,11.62
2019-04-27T19:24:51.830Z,11.65
2019-04-27T19:27:44.128Z,11.56
2019-04-27T19:30:23.850Z,11.36
2019-04-27T19:32:55.121Z,11.41
2019-04-27T19:35:25.956Z,11.42
2019-04-27T19:37:56.556Z,11.52
2019-04-27T19:40:26.683Z,11.61
2019-04-27T19:42:58.727Z,11.64
2019-04-27T19:45:31.867Z,11.54
2019-04-27T19:48:02.574Z,11.55
2019-04-27T19:50:32.838Z,11.60
2019-04-27T19:53:03.042Z,11.46
2019-04-27T19:55:38.954Z,11.50
2019-04-27T19:58:09.365Z,11.40
2019-04-27T20:01:11.131Z,11.34
2019-04-27T20:03:38.875Z,11.33
2019-04-27T20:06:10.432Z,11.40
2019-04-27T20:08:42.580Z,10.87
2019-04-27T20:11:12.399Z,11.55
2019-04-27T20:13:42.386Z,11.49
2019-04-27T20:16:12.382Z,11.42
2019-04-27T20:18:43.329Z,11.46
2019-04-27T20:21:13.316Z,11.44
2019-04-27T20:23:43.156Z,11.49
2019-04-27T20:26:12.959Z,11.49
2019-04-27T20:28:43.479Z,11.54
2019-04-27T20:31:13.491Z,11.52
2019-04-27T20:33:43.433Z,11.44
2019-04-27T20:36:13.152Z,11.48
2019-04-27T20:38:43.800Z,11.57
2019-04-27T20:41:13.902Z,11.56
2019-04-27T20:43:44.228Z,11.60
2019-04-27T20:46:14.432Z,11.53
2019-04-27T20:48:44.204Z,11.51
2019-04-27T20:51:14.399Z,11.54
2019-04-27T20:53:51.764Z,11.56
2019-04-27T20:56:21.953Z,11.59
2019-04-27T20:58:51.870Z,11.59
2019-04-27T21:01:21.774Z,11.61
2019-04-27T21:03:55.469Z,11.45
2019-04-27T21:06:42.625Z,11.41
2019-04-27T21:09:16.843Z,11.35
2019-04-27T21:11:49.374Z,11.40
2019-04-27T21:14:21.720Z,11.36
2019-04-27T21:16:56.806Z,11.49
2019-04-27T21:19:26.406Z,11.45
2019-04-27T21:21:58.683Z,11.44
2019-04-27T21:24:28.459Z,11.48
2019-04-27T21:26:59.751Z,11.47
2019-04-27T21:29:31.175Z,11.51
2019-04-27T21:32:01.226Z,11.53
2019-04-27T21:34:31.214Z,11.47
2019-04-27T21:37:01.142Z,11.46
2019-04-27T21:39:32.365Z,11.44
2019-04-27T21:42:03.410Z,11.49
2019-04-27T21:44:33.893Z,11.44
2019-04-27T21:47:04.512Z,11.42
2019-04-27T21:49:37.257Z,11.46
2019-04-27T21:52:14.626Z,11.42
2019-04-27T21:54:44.972Z,11.49
2019-04-27T21:57:15.133Z,11.48
2019-04-27T21:59:44.895Z,11.43
2019-04-27T22:02:14.621Z,11.34
2019-04-27T22:04:44.612Z,11.36
2019-04-27T22:07:14.451Z,11.30
2019-04-27T22:09:44.425Z,11.24
2019-04-27T22:12:14.941Z,11.22
2019-04-27T22:14:45.711Z,11.14
2019-04-27T22:17:16.701Z,11.16
2019-04-27T22:19:46.560Z,11.28
2019-04-27T22:22:24.128Z,11.37
2019-04-27T22:25:04.900Z,11.34
2019-04-27T22:27:35.491Z,11.36
2019-04-27T22:30:07.576Z,11.36
2019-04-27T22:32:38.110Z,11.28
2019-04-27T22:35:08.374Z,11.27
2019-04-27T22:37:41.351Z,11.38
2019-04-27T22:40:38.484Z,11.29
2019-04-27T22:43:41.198Z,11.35
2019-04-27T22:46:13.839Z,11.43
2019-04-27T22:48:46.541Z,11.37
2019-04-27T22:51:17.559Z,11.44
2019-04-27T22:53:48.002Z,11.38
2019-04-27T22:56:22.285Z,11.29
2019-04-27T22:59:03.631Z,11.24
2019-04-27T23:01:53.828Z,11.30
2019-04-27T23:04:32.429Z,11.27
2019-04-27T23:07:03.190Z,11.25
2019-04-27T23:09:33.774Z,11.29
2019-04-27T23:12:04.552Z,11.21
2019-04-27T23:14:41.373Z,11.23
2019-04-27T23:17:36.073Z,11.30
2019-04-27T23:20:06.438Z,11.29
2019-04-27T23:22:36.884Z,11.31
2019-04-27T23:25:07.039Z,11.32
2019-04-27T23:27:36.718Z,11.32
2019-04-27T23:30:07.027Z,11.40
2019-04-27T23:32:51.321Z,11.40
2019-04-27T23:35:20.786Z,11.36
2019-04-27T23:37:50.807Z,11.29
2019-04-27T23:40:22.054Z,11.31
2019-04-27T23:42:51.920Z,11.36
2019-04-27T23:45:26.751Z,11.44
2019-04-27T23:47:56.633Z,11.37
2019-04-27T23:50:28.378Z,11.33
2019-04-27T23:53:05.807Z,11.28
2019-04-27T23:55:36.116Z,11.20
2019-04-27T23:58:10.890Z,11.21
